sensor_id;sensor_type;location;lat;lon;timestamp;temperature;humidity
2158;DHT22;41972;48.774;9.282;2022-12-24T00:01:08;10.20;99.90
2158;DHT22;41972;48.774;9.282;2022-12-24T00:03:36;10.10;99.90
2158;DHT22;41972;48.774;9.282;2022-12-24T00:06:12;10.30;99.90
2158;DHT22;41972;48.774;9.282;2022-12-24T00:08:40;10.20;99.90
2158;DHT22;41972;48.774;9.282;2022-12-24T00:11:06;10.20;99.90
2158;DHT22;41972;48.774;9.282;2022-12-24T00:13:32;10.20;99.90
2158;DHT22;41972;48.774;9.282;2022-12-24T00:15:58;10.30;99.90
2158;DHT22;41972;48.774;9.282;2022-12-24T00:18:23;10.50;99.90
2158;DHT22;41972;48.774;9.282;2022-12-24T00:20:49;10.50;99.90
2158;DHT22;41972;48.774;9.282;2022-12-24T00:23:15;10.50;99.90
2158;DHT22;41972;48.774;9.282;2022-12-24T00:25:41;10.60;99.90
2158;DHT22;41972;48.774;9.282;2022-12-24T00:28:07;10.60;99.90
2158;DHT22;41972;48.774;9.282;2022-12-24T00:30:32;10.70;99.90
2158;DHT22;41972;48.774;9.282;2022-12-24T00:32:58;10.60;99.90
2158;DHT22;41972;48.774;9.282;2022-12-24T00:35:23;10.60;99.90
2158;DHT22;41972;48.774;9.282;2022-12-24T00:37:49;10.50;99.90
2158;DHT22;41972;48.774;9.282;2022-12-24T00:40:16;10.50;99.90
2158;DHT22;41972;48.774;9.282;2022-12-24T00:42:42;10.50;99.90
2158;DHT22;41972;48.774;9.282;2022-12-24T00:45:08;10.50;99.90
2158;DHT22;41972;48.774;9.282;2022-12-24T00:47:34;10.50;99.90
2158;DHT22;41972;48.774;9.282;2022-12-24T00:50:00;10.50;99.90
2158;DHT22;41972;48.774;9.282;2022-12-24T00:52:26;10.40;99.90
2158;DHT22;41972;48.774;9.282;2022-12-24T00:54:52;10.40;99.90
2158;DHT22;41972;48.774;9.282;2022-12-24T00:57:17;10.40;99.90
2158;DHT22;41972;48.774;9.282;2022-12-24T00:59:43;10.50;99.90
2158;DHT22;41972;48.774;9.282;2022-12-24T01:02:09;10.50;99.90
2158;DHT22;41972;48.774;9.282;2022-12-24T01:04:34;10.40;99.90
2158;DHT22;41972;48.774;9.282;2022-12-24T01:07:19;10.40;99.90
2158;DHT22;41972;48.774;9.282;2022-12-24T01:09:44;10.40;99.90
2158;DHT22;41972;48.774;9.282;2022-12-24T01:12:10;10.30;99.90
2158;DHT22;41972;48.774;9.282;2022-12-24T01:14:36;10.20;99.90
2158;DHT22;41972;48.774;9.282;2022-12-24T01:17:03;10.30;99.90
2158;DHT22;41972;48.774;9.282;2022-12-24T01:19:28;10.40;99.90
2158;DHT22;41972;48.774;9.282;2022-12-24T01:21:54;10.40;99.90
2158;DHT22;41972;48.774;9.282;2022-12-24T01:24:19;10.40;99.90
2158;DHT22;41972;48.774;9.282;2022-12-24T01:26:45;10.30;99.90
2158;DHT22;41972;48.774;9.282;2022-12-24T01:29:11;10.20;99.90
2158;DHT22;41972;48.774;9.282;2022-12-24T01:31:36;10.20;99.90
2158;DHT22;41972;48.774;9.282;2022-12-24T01:34:02;10.20;99.90
2158;DHT22;41972;48.774;9.282;2022-12-24T01:36:28;10.20;99.90
2158;DHT22;41972;48.774;9.282;2022-12-24T01:38:53;10.20;99.90
2158;DHT22;41972;48.774;9.282;2022-12-24T01:41:21;10.30;99.90
2158;DHT22;41972;48.774;9.282;2022-12-24T01:44:25;10.30;99.90
2158;DHT22;41972;48.774;9.282;2022-12-24T01:46:58;10.40;99.90
2158;DHT22;41972;48.774;9.282;2022-12-24T01:49:27;10.50;99.90
2158;DHT22;41972;48.774;9.282;2022-12-24T01:52:02;10.40;99.90
2158;DHT22;41972;48.774;9.282;2022-12-24T01:55:01;10.20;99.90
2158;DHT22;41972;48.774;9.282;2022-12-24T01:57:30;9.90;99.90
2158;DHT22;41972;48.774;9.282;2022-12-24T02:00:00;9.90;99.90
2158;DHT22;41972;48.774;9.282;2022-12-24T02:02:26;9.90;99.90
2158;DHT22;41972;48.774;9.282;2022-12-24T02:05:16;9.90;99.90
2158;DHT22;41972;48.774;9.282;2022-12-24T02:07:43;9.90;99.90
2158;DHT22;41972;48.774;9.282;2022-12-24T02:10:11;9.90;99.90
2158;DHT22;41972;48.774;9.282;2022-12-24T02:12:38;9.90;99.90
2158;DHT22;41972;48.774;9.282;2022-12-24T02:15:06;9.70;99.90
2158;DHT22;41972;48.774;9.282;2022-12-24T02:20:35;9.60;99.90
2158;DHT22;41972;48.774;9.282;2022-12-24T02:26:20;9.50;99.90
2158;DHT22;41972;48.774;9.282;2022-12-24T02:36:45;9.40;99.90
2158;DHT22;41972;48.774;9.282;2022-12-24T02:39:44;9.40;99.90
2158;DHT22;41972;48.774;9.282;2022-12-24T02:42:14;9.30;99.90
2158;DHT22;41972;48.774;9.282;2022-12-24T02:44:59;9.30;99.90
2158;DHT22;41972;48.774;9.282;2022-12-24T02:47:27;9.30;99.90
2158;DHT22;41972;48.774;9.282;2022-12-24T02:49:53;9.20;99.90
2158;DHT22;41972;48.774;9.282;2022-12-24T02:55:01;9.00;99.90
2158;DHT22;41972;48.774;9.282;2022-12-24T03:00:22;8.90;99.90
2158;DHT22;41972;48.774;9.282;2022-12-24T03:05:56;8.80;99.90
2158;DHT22;41972;48.774;9.282;2022-12-24T03:08:32;8.60;99.90
2158;DHT22;41972;48.774;9.282;2022-12-24T03:13:27;8.40;99.90
2158;DHT22;41972;48.774;9.282;2022-12-24T03:15:54;8.40;99.90
2158;DHT22;41972;48.774;9.282;2022-12-24T03:18:22;8.50;99.90
2158;DHT22;41972;48.774;9.282;2022-12-24T03:21:05;8.60;99.90
2158;DHT22;41972;48.774;9.282;2022-12-24T03:23:31;8.50;99.90
2158;DHT22;41972;48.774;9.282;2022-12-24T03:25:59;8.40;99.90
2158;DHT22;41972;48.774;9.282;2022-12-24T03:28:27;8.60;99.90
2158;DHT22;41972;48.774;9.282;2022-12-24T03:30:53;8.60;99.90
2158;DHT22;41972;48.774;9.282;2022-12-24T03:33:19;8.40;99.90
2158;DHT22;41972;48.774;9.282;2022-12-24T03:35:46;8.50;99.90
2158;DHT22;41972;48.774;9.282;2022-12-24T03:38:11;8.40;99.90
2158;DHT22;41972;48.774;9.282;2022-12-24T03:40:37;8.40;99.90
2158;DHT22;41972;48.774;9.282;2022-12-24T03:43:03;8.40;99.90
2158;DHT22;41972;48.774;9.282;2022-12-24T03:45:28;8.60;99.90
2158;DHT22;41972;48.774;9.282;2022-12-24T03:47:54;8.70;99.90
2158;DHT22;41972;48.774;9.282;2022-12-24T03:50:19;8.70;99.90
2158;DHT22;41972;48.774;9.282;2022-12-24T03:52:45;8.80;99.90
2158;DHT22;41972;48.774;9.282;2022-12-24T03:55:13;8.50;99.90
2158;DHT22;41972;48.774;9.282;2022-12-24T03:57:39;8.50;99.90
2158;DHT22;41972;48.774;9.282;2022-12-24T04:00:05;8.50;99.90
2158;DHT22;41972;48.774;9.282;2022-12-24T04:02:31;8.60;99.90
2158;DHT22;41972;48.774;9.282;2022-12-24T04:04:56;8.70;99.90
2158;DHT22;41972;48.774;9.282;2022-12-24T04:07:22;8.60;99.90
2158;DHT22;41972;48.774;9.282;2022-12-24T04:09:48;8.60;99.90
2158;DHT22;41972;48.774;9.282;2022-12-24T04:12:13;8.60;99.90
2158;DHT22;41972;48.774;9.282;2022-12-24T04:14:39;8.50;99.90
2158;DHT22;41972;48.774;9.282;2022-12-24T04:17:05;8.40;99.90
2158;DHT22;41972;48.774;9.282;2022-12-24T04:19:30;8.50;99.90
2158;DHT22;41972;48.774;9.282;2022-12-24T04:21:56;8.50;99.90
2158;DHT22;41972;48.774;9.282;2022-12-24T04:24:21;8.60;99.90
2158;DHT22;41972;48.774;9.282;2022-12-24T04:26:49;8.70;99.90
2158;DHT22;41972;48.774;9.282;2022-12-24T04:29:14;8.80;99.90
2158;DHT22;41972;48.774;9.282;2022-12-24T04:31:40;8.80;99.90
2158;DHT22;41972;48.774;9.282;2022-12-24T04:34:05;8.90;99.90
2158;DHT22;41972;48.774;9.282;2022-12-24T04:36:31;8.70;99.90
2158;DHT22;41972;48.774;9.282;2022-12-24T04:38:56;8.70;99.90
2158;DHT22;41972;48.774;9.282;2022-12-24T04:41:23;8.70;99.90
2158;DHT22;41972;48.774;9.282;2022-12-24T04:43:49;8.90;99.90
2158;DHT22;41972;48.774;9.282;2022-12-24T04:46:18;9.00;99.90
2158;DHT22;41972;48.774;9.282;2022-12-24T04:48:47;9.10;99.90
2158;DHT22;41972;48.774;9.282;2022-12-24T04:51:14;8.80;99.90
2158;DHT22;41972;48.774;9.282;2022-12-24T04:53:40;8.60;99.90
2158;DHT22;41972;48.774;9.282;2022-12-24T04:56:09;8.50;99.90
2158;DHT22;41972;48.774;9.282;2022-12-24T04:58:36;8.50;99.90
2158;DHT22;41972;48.774;9.282;2022-12-24T05:01:06;8.40;99.90
2158;DHT22;41972;48.774;9.282;2022-12-24T05:03:32;8.40;99.90
2158;DHT22;41972;48.774;9.282;2022-12-24T05:06:04;8.40;99.90
2158;DHT22;41972;48.774;9.282;2022-12-24T05:08:30;8.50;99.90
2158;DHT22;41972;48.774;9.282;2022-12-24T05:10:57;8.60;99.90
2158;DHT22;41972;48.774;9.282;2022-12-24T05:13:23;8.60;99.90
2158;DHT22;41972;48.774;9.282;2022-12-24T05:15:49;8.60;99.90
2158;DHT22;41972;48.774;9.282;2022-12-24T05:18:14;8.70;99.90
2158;DHT22;41972;48.774;9.282;2022-12-24T05:20:40;8.70;99.90
2158;DHT22;41972;48.774;9.282;2022-12-24T05:23:06;8.80;99.90
2158;DHT22;41972;48.774;9.282;2022-12-24T05:25:50;8.80;99.90
2158;DHT22;41972;48.774;9.282;2022-12-24T05:28:34;8.80;99.90
2158;DHT22;41972;48.774;9.282;2022-12-24T05:31:00;8.80;99.90
2158;DHT22;41972;48.774;9.282;2022-12-24T05:33:26;8.80;99.90
2158;DHT22;41972;48.774;9.282;2022-12-24T05:35:51;8.80;99.90
2158;DHT22;41972;48.774;9.282;2022-12-24T05:38:17;8.80;99.90
2158;DHT22;41972;48.774;9.282;2022-12-24T05:40:42;8.80;99.90
2158;DHT22;41972;48.774;9.282;2022-12-24T05:43:08;8.90;99.90
2158;DHT22;41972;48.774;9.282;2022-12-24T05:45:33;8.90;99.90
2158;DHT22;41972;48.774;9.282;2022-12-24T05:47:59;8.90;99.90
2158;DHT22;41972;48.774;9.282;2022-12-24T05:50:25;8.90;99.90
2158;DHT22;41972;48.774;9.282;2022-12-24T05:52:50;8.80;99.90
2158;DHT22;41972;48.774;9.282;2022-12-24T05:55:16;8.80;99.90
2158;DHT22;41972;48.774;9.282;2022-12-24T05:57:41;8.70;99.90
2158;DHT22;41972;48.774;9.282;2022-12-24T06:00:07;8.60;99.90
2158;DHT22;41972;48.774;9.282;2022-12-24T06:02:33;8.60;99.90
2158;DHT22;41972;48.774;9.282;2022-12-24T06:04:59;8.50;99.90
2158;DHT22;41972;48.774;9.282;2022-12-24T06:07:24;8.60;99.90
2158;DHT22;41972;48.774;9.282;2022-12-24T06:09:50;8.50;99.90
2158;DHT22;41972;48.774;9.282;2022-12-24T06:12:16;8.50;99.90
2158;DHT22;41972;48.774;9.282;2022-12-24T06:14:41;8.50;99.90
2158;DHT22;41972;48.774;9.282;2022-12-24T06:17:07;8.60;99.90
2158;DHT22;41972;48.774;9.282;2022-12-24T06:19:32;8.70;99.90
2158;DHT22;41972;48.774;9.282;2022-12-24T06:21:58;8.70;99.90
2158;DHT22;41972;48.774;9.282;2022-12-24T06:24:23;8.60;99.90
2158;DHT22;41972;48.774;9.282;2022-12-24T06:26:49;8.60;99.90
2158;DHT22;41972;48.774;9.282;2022-12-24T06:29:14;8.60;99.90
2158;DHT22;41972;48.774;9.282;2022-12-24T06:31:40;8.70;99.90
2158;DHT22;41972;48.774;9.282;2022-12-24T06:34:05;8.60;99.90
2158;DHT22;41972;48.774;9.282;2022-12-24T06:36:31;8.70;99.90
2158;DHT22;41972;48.774;9.282;2022-12-24T06:38:56;8.60;99.90
2158;DHT22;41972;48.774;9.282;2022-12-24T06:41:22;8.50;99.90
2158;DHT22;41972;48.774;9.282;2022-12-24T06:43:50;8.40;99.90
2158;DHT22;41972;48.774;9.282;2022-12-24T06:46:16;8.40;99.90
2158;DHT22;41972;48.774;9.282;2022-12-24T06:48:46;8.50;99.90
2158;DHT22;41972;48.774;9.282;2022-12-24T06:51:12;8.40;99.90
2158;DHT22;41972;48.774;9.282;2022-12-24T06:53:38;8.50;99.90
2158;DHT22;41972;48.774;9.282;2022-12-24T06:56:06;8.40;99.90
2158;DHT22;41972;48.774;9.282;2022-12-24T06:58:32;8.30;99.90
2158;DHT22;41972;48.774;9.282;2022-12-24T07:01:03;8.30;99.90
2158;DHT22;41972;48.774;9.282;2022-12-24T07:03:30;8.20;99.90
2158;DHT22;41972;48.774;9.282;2022-12-24T07:05:56;8.30;99.90
2158;DHT22;41972;48.774;9.282;2022-12-24T07:08:22;8.40;99.90
2158;DHT22;41972;48.774;9.282;2022-12-24T07:10:48;8.50;99.90
2158;DHT22;41972;48.774;9.282;2022-12-24T07:13:14;8.60;99.90
2158;DHT22;41972;48.774;9.282;2022-12-24T07:15:40;8.70;99.90
2158;DHT22;41972;48.774;9.282;2022-12-24T07:18:06;8.80;99.90
2158;DHT22;41972;48.774;9.282;2022-12-24T07:20:31;8.80;99.90
2158;DHT22;41972;48.774;9.282;2022-12-24T07:22:57;8.70;99.90
2158;DHT22;41972;48.774;9.282;2022-12-24T07:25:23;8.90;99.90
2158;DHT22;41972;48.774;9.282;2022-12-24T07:27:48;8.90;99.90
2158;DHT22;41972;48.774;9.282;2022-12-24T07:30:14;8.90;99.90
2158;DHT22;41972;48.774;9.282;2022-12-24T07:32:40;9.00;99.90
2158;DHT22;41972;48.774;9.282;2022-12-24T07:35:06;9.00;99.90
2158;DHT22;41972;48.774;9.282;2022-12-24T07:37:32;8.80;99.90
2158;DHT22;41972;48.774;9.282;2022-12-24T07:39:57;8.60;99.90
2158;DHT22;41972;48.774;9.282;2022-12-24T07:42:23;8.60;99.90
2158;DHT22;41972;48.774;9.282;2022-12-24T07:44:48;8.60;99.90
2158;DHT22;41972;48.774;9.282;2022-12-24T07:47:14;8.60;99.90
2158;DHT22;41972;48.774;9.282;2022-12-24T07:49:39;8.70;99.90
2158;DHT22;41972;48.774;9.282;2022-12-24T07:52:05;8.80;99.90
2158;DHT22;41972;48.774;9.282;2022-12-24T07:54:31;8.60;99.90
2158;DHT22;41972;48.774;9.282;2022-12-24T07:56:56;8.70;99.90
2158;DHT22;41972;48.774;9.282;2022-12-24T07:59:22;8.80;99.90
2158;DHT22;41972;48.774;9.282;2022-12-24T08:01:47;8.90;99.90
2158;DHT22;41972;48.774;9.282;2022-12-24T08:04:13;8.90;99.90
2158;DHT22;41972;48.774;9.282;2022-12-24T08:06:39;9.00;99.90
2158;DHT22;41972;48.774;9.282;2022-12-24T08:09:05;8.90;99.90
2158;DHT22;41972;48.774;9.282;2022-12-24T08:11:30;8.90;99.90
2158;DHT22;41972;48.774;9.282;2022-12-24T08:13:56;8.80;99.90
2158;DHT22;41972;48.774;9.282;2022-12-24T08:16:22;8.80;99.90
2158;DHT22;41972;48.774;9.282;2022-12-24T08:18:47;8.80;99.90
2158;DHT22;41972;48.774;9.282;2022-12-24T08:21:16;9.00;99.90
2158;DHT22;41972;48.774;9.282;2022-12-24T08:23:41;9.10;99.90
2158;DHT22;41972;48.774;9.282;2022-12-24T08:26:08;9.20;99.90
2158;DHT22;41972;48.774;9.282;2022-12-24T08:28:34;9.10;99.90
2158;DHT22;41972;48.774;9.282;2022-12-24T08:31:00;9.20;99.90
2158;DHT22;41972;48.774;9.282;2022-12-24T08:33:26;9.30;99.90
2158;DHT22;41972;48.774;9.282;2022-12-24T08:35:53;9.40;99.90
2158;DHT22;41972;48.774;9.282;2022-12-24T08:38:19;9.50;99.90
2158;DHT22;41972;48.774;9.282;2022-12-24T08:40:45;9.60;99.90
2158;DHT22;41972;48.774;9.282;2022-12-24T08:43:18;9.80;99.90
2158;DHT22;41972;48.774;9.282;2022-12-24T08:45:44;9.60;99.90
2158;DHT22;41972;48.774;9.282;2022-12-24T08:48:10;9.50;99.90
2158;DHT22;41972;48.774;9.282;2022-12-24T08:50:38;9.60;99.90
2158;DHT22;41972;48.774;9.282;2022-12-24T08:53:04;9.70;99.90
2158;DHT22;41972;48.774;9.282;2022-12-24T08:55:29;9.40;99.90
2158;DHT22;41972;48.774;9.282;2022-12-24T08:57:55;9.40;99.90
2158;DHT22;41972;48.774;9.282;2022-12-24T09:00:21;9.40;99.90
2158;DHT22;41972;48.774;9.282;2022-12-24T09:02:46;9.40;99.90
2158;DHT22;41972;48.774;9.282;2022-12-24T09:05:12;9.30;99.90
2158;DHT22;41972;48.774;9.282;2022-12-24T09:07:37;9.40;99.90
2158;DHT22;41972;48.774;9.282;2022-12-24T09:10:03;9.50;99.90
2158;DHT22;41972;48.774;9.282;2022-12-24T09:12:29;9.50;99.90
2158;DHT22;41972;48.774;9.282;2022-12-24T09:14:55;9.70;99.90
2158;DHT22;41972;48.774;9.282;2022-12-24T09:17:20;9.90;99.90
2158;DHT22;41972;48.774;9.282;2022-12-24T09:19:46;10.10;99.90
2158;DHT22;41972;48.774;9.282;2022-12-24T09:22:12;10.20;99.90
2158;DHT22;41972;48.774;9.282;2022-12-24T09:24:38;10.30;99.90
2158;DHT22;41972;48.774;9.282;2022-12-24T09:27:04;10.50;99.90
2158;DHT22;41972;48.774;9.282;2022-12-24T09:29:30;11.20;99.90
2158;DHT22;41972;48.774;9.282;2022-12-24T09:31:56;11.80;99.90
2158;DHT22;41972;48.774;9.282;2022-12-24T09:34:22;12.40;99.90
2158;DHT22;41972;48.774;9.282;2022-12-24T09:36:48;13.60;99.90
2158;DHT22;41972;48.774;9.282;2022-12-24T09:39:14;14.60;99.90
2158;DHT22;41972;48.774;9.282;2022-12-24T09:41:57;13.30;99.90
2158;DHT22;41972;48.774;9.282;2022-12-24T09:45:04;12.90;99.90
2158;DHT22;41972;48.774;9.282;2022-12-24T09:50:01;12.50;99.90
2158;DHT22;41972;48.774;9.282;2022-12-24T09:52:40;12.90;99.90
2158;DHT22;41972;48.774;9.282;2022-12-24T09:57:39;13.20;99.90
2158;DHT22;41972;48.774;9.282;2022-12-24T10:00:25;13.00;99.90
2158;DHT22;41972;48.774;9.282;2022-12-24T10:02:51;12.80;99.90
2158;DHT22;41972;48.774;9.282;2022-12-24T10:05:26;13.30;99.90
2158;DHT22;41972;48.774;9.282;2022-12-24T10:10:49;15.40;99.90
2158;DHT22;41972;48.774;9.282;2022-12-24T10:13:49;17.00;99.90
2158;DHT22;41972;48.774;9.282;2022-12-24T10:16:36;16.70;99.90
2158;DHT22;41972;48.774;9.282;2022-12-24T10:19:20;18.00;99.90
2158;DHT22;41972;48.774;9.282;2022-12-24T10:25:15;19.80;99.90
2158;DHT22;41972;48.774;9.282;2022-12-24T10:27:41;17.50;99.90
2158;DHT22;41972;48.774;9.282;2022-12-24T10:30:16;18.70;99.90
2158;DHT22;41972;48.774;9.282;2022-12-24T10:32:46;16.00;99.90
2158;DHT22;41972;48.774;9.282;2022-12-24T10:37:45;14.20;99.90
2158;DHT22;41972;48.774;9.282;2022-12-24T10:40:32;13.30;99.90
2158;DHT22;41972;48.774;9.282;2022-12-24T10:43:00;13.00;99.90
2158;DHT22;41972;48.774;9.282;2022-12-24T10:45:38;11.70;99.90
2158;DHT22;41972;48.774;9.282;2022-12-24T10:48:08;11.60;99.90
2158;DHT22;41972;48.774;9.282;2022-12-24T10:50:40;11.50;99.90
2158;DHT22;41972;48.774;9.282;2022-12-24T10:53:26;11.30;99.90
2158;DHT22;41972;48.774;9.282;2022-12-24T10:56:01;11.80;99.90
2158;DHT22;41972;48.774;9.282;2022-12-24T10:58:28;12.20;99.90
2158;DHT22;41972;48.774;9.282;2022-12-24T11:00:54;12.40;99.90
2158;DHT22;41972;48.774;9.282;2022-12-24T11:05:59;13.30;99.90
2158;DHT22;41972;48.774;9.282;2022-12-24T11:08:25;13.10;99.90
2158;DHT22;41972;48.774;9.282;2022-12-24T11:11:18;12.40;99.90
2158;DHT22;41972;48.774;9.282;2022-12-24T11:16:20;12.00;99.90
2158;DHT22;41972;48.774;9.282;2022-12-24T11:18:53;11.70;99.90
2158;DHT22;41972;48.774;9.282;2022-12-24T11:21:31;11.70;99.90
2158;DHT22;41972;48.774;9.282;2022-12-24T11:24:06;11.60;99.90
2158;DHT22;41972;48.774;9.282;2022-12-24T11:26:34;11.60;99.90
2158;DHT22;41972;48.774;9.282;2022-12-24T11:31:46;11.40;99.90
2158;DHT22;41972;48.774;9.282;2022-12-24T11:34:28;11.50;99.90
2158;DHT22;41972;48.774;9.282;2022-12-24T11:37:08;11.60;99.90
2158;DHT22;41972;48.774;9.282;2022-12-24T11:39:39;11.70;99.90
2158;DHT22;41972;48.774;9.282;2022-12-24T11:42:05;11.80;99.90
2158;DHT22;41972;48.774;9.282;2022-12-24T11:44:31;11.70;99.90
2158;DHT22;41972;48.774;9.282;2022-12-24T11:46:56;11.80;99.90
2158;DHT22;41972;48.774;9.282;2022-12-24T11:49:30;11.60;99.90
2158;DHT22;41972;48.774;9.282;2022-12-24T11:52:18;11.70;99.90
2158;DHT22;41972;48.774;9.282;2022-12-24T11:55:02;11.60;99.90
2158;DHT22;41972;48.774;9.282;2022-12-24T11:57:37;11.80;99.90
2158;DHT22;41972;48.774;9.282;2022-12-24T12:00:09;12.10;99.90
2158;DHT22;41972;48.774;9.282;2022-12-24T12:02:37;12.40;99.90
2158;DHT22;41972;48.774;9.282;2022-12-24T12:05:23;12.50;99.90
2158;DHT22;41972;48.774;9.282;2022-12-24T12:07:53;12.20;99.90
2158;DHT22;41972;48.774;9.282;2022-12-24T12:10:25;12.30;99.90
2158;DHT22;41972;48.774;9.282;2022-12-24T12:13:02;12.20;99.90
2158;DHT22;41972;48.774;9.282;2022-12-24T12:15:33;12.20;99.90
2158;DHT22;41972;48.774;9.282;2022-12-24T12:18:14;12.00;99.90
2158;DHT22;41972;48.774;9.282;2022-12-24T12:20:50;12.00;99.90
2158;DHT22;41972;48.774;9.282;2022-12-24T12:23:24;12.40;99.90
2158;DHT22;41972;48.774;9.282;2022-12-24T12:26:17;12.40;99.90
2158;DHT22;41972;48.774;9.282;2022-12-24T12:29:29;12.70;99.90
2158;DHT22;41972;48.774;9.282;2022-12-24T12:32:01;12.70;99.90
2158;DHT22;41972;48.774;9.282;2022-12-24T12:34:36;12.90;99.90
2158;DHT22;41972;48.774;9.282;2022-12-24T12:37:42;13.00;99.90
2158;DHT22;41972;48.774;9.282;2022-12-24T12:40:01;13.30;99.90
2158;DHT22;41972;48.774;9.282;2022-12-24T12:47:27;12.60;99.90
2158;DHT22;41972;48.774;9.282;2022-12-24T12:53:30;12.70;99.90
2158;DHT22;41972;48.774;9.282;2022-12-24T12:56:19;12.60;99.90
2158;DHT22;41972;48.774;9.282;2022-12-24T12:58:54;12.60;99.90
2158;DHT22;41972;48.774;9.282;2022-12-24T13:01:56;12.70;99.90
2158;DHT22;41972;48.774;9.282;2022-12-24T13:15:39;12.70;99.90
2158;DHT22;41972;48.774;9.282;2022-12-24T13:20:49;12.60;99.90
2158;DHT22;41972;48.774;9.282;2022-12-24T13:23:20;12.70;99.90
2158;DHT22;41972;48.774;9.282;2022-12-24T13:25:51;12.90;99.90
2158;DHT22;41972;48.774;9.282;2022-12-24T13:36:05;12.70;99.90
2158;DHT22;41972;48.774;9.282;2022-12-24T13:47:01;12.20;99.90
2158;DHT22;41972;48.774;9.282;2022-12-24T13:49:36;11.90;99.90
2158;DHT22;41972;48.774;9.282;2022-12-24T13:54:36;11.40;99.90
2158;DHT22;41972;48.774;9.282;2022-12-24T13:57:26;11.40;99.90
2158;DHT22;41972;48.774;9.282;2022-12-24T14:00:23;11.10;99.90
2158;DHT22;41972;48.774;9.282;2022-12-24T14:02:54;11.00;99.90
2158;DHT22;41972;48.774;9.282;2022-12-24T14:05:26;10.50;99.90
2158;DHT22;41972;48.774;9.282;2022-12-24T14:07:55;10.50;99.90
2158;DHT22;41972;48.774;9.282;2022-12-24T14:10:25;10.30;99.90
2158;DHT22;41972;48.774;9.282;2022-12-24T14:12:52;10.30;99.90
2158;DHT22;41972;48.774;9.282;2022-12-24T14:18:22;10.40;99.90
2158;DHT22;41972;48.774;9.282;2022-12-24T14:20:54;10.40;99.90
2158;DHT22;41972;48.774;9.282;2022-12-24T14:23:51;10.40;99.90
2158;DHT22;41972;48.774;9.282;2022-12-24T14:26:20;10.30;99.90
2158;DHT22;41972;48.774;9.282;2022-12-24T14:28:53;10.30;99.90
2158;DHT22;41972;48.774;9.282;2022-12-24T14:31:20;10.30;99.90
2158;DHT22;41972;48.774;9.282;2022-12-24T14:33:46;10.20;99.90
2158;DHT22;41972;48.774;9.282;2022-12-24T14:36:15;10.30;99.90
2158;DHT22;41972;48.774;9.282;2022-12-24T14:38:43;10.40;99.90
2158;DHT22;41972;48.774;9.282;2022-12-24T14:41:27;10.10;99.90
2158;DHT22;41972;48.774;9.282;2022-12-24T14:44:11;9.90;99.90
2158;DHT22;41972;48.774;9.282;2022-12-24T14:47:43;9.90;99.90
2158;DHT22;41972;48.774;9.282;2022-12-24T14:55:30;10.10;99.90
2158;DHT22;41972;48.774;9.282;2022-12-24T15:00:51;9.80;99.90
2158;DHT22;41972;48.774;9.282;2022-12-24T15:03:20;9.70;99.90
2158;DHT22;41972;48.774;9.282;2022-12-24T15:05:54;9.50;99.90
2158;DHT22;41972;48.774;9.282;2022-12-24T15:08:28;9.30;99.90
2158;DHT22;41972;48.774;9.282;2022-12-24T15:10:59;9.20;99.90
2158;DHT22;41972;48.774;9.282;2022-12-24T15:13:51;9.00;99.90
2158;DHT22;41972;48.774;9.282;2022-12-24T15:16:27;8.80;99.90
2158;DHT22;41972;48.774;9.282;2022-12-24T15:18:57;8.90;99.90
2158;DHT22;41972;48.774;9.282;2022-12-24T15:21:32;8.80;99.90
2158;DHT22;41972;48.774;9.282;2022-12-24T15:23:59;8.80;99.90
2158;DHT22;41972;48.774;9.282;2022-12-24T15:26:26;8.90;99.90
2158;DHT22;41972;48.774;9.282;2022-12-24T15:28:54;8.90;99.90
2158;DHT22;41972;48.774;9.282;2022-12-24T15:31:22;8.90;99.90
2158;DHT22;41972;48.774;9.282;2022-12-24T15:33:54;8.90;99.90
2158;DHT22;41972;48.774;9.282;2022-12-24T15:36:39;9.10;99.90
2158;DHT22;41972;48.774;9.282;2022-12-24T15:39:07;8.90;99.90
2158;DHT22;41972;48.774;9.282;2022-12-24T15:41:40;8.90;99.90
2158;DHT22;41972;48.774;9.282;2022-12-24T15:44:34;8.80;99.90
2158;DHT22;41972;48.774;9.282;2022-12-24T15:47:01;8.90;99.90
2158;DHT22;41972;48.774;9.282;2022-12-24T15:49:30;8.80;99.90
2158;DHT22;41972;48.774;9.282;2022-12-24T15:52:08;8.80;99.90
2158;DHT22;41972;48.774;9.282;2022-12-24T15:54:46;8.80;99.90
2158;DHT22;41972;48.774;9.282;2022-12-24T15:57:25;8.80;99.90
2158;DHT22;41972;48.774;9.282;2022-12-24T15:59:55;8.90;99.90
2158;DHT22;41972;48.774;9.282;2022-12-24T16:02:39;8.90;99.90
2158;DHT22;41972;48.774;9.282;2022-12-24T16:08:05;9.10;99.90
2158;DHT22;41972;48.774;9.282;2022-12-24T16:10:42;9.10;99.90
2158;DHT22;41972;48.774;9.282;2022-12-24T16:15:54;9.00;99.90
2158;DHT22;41972;48.774;9.282;2022-12-24T16:18:24;9.00;99.90
2158;DHT22;41972;48.774;9.282;2022-12-24T16:20:51;9.10;99.90
2158;DHT22;41972;48.774;9.282;2022-12-24T16:23:20;9.10;99.90
2158;DHT22;41972;48.774;9.282;2022-12-24T16:25:47;9.10;99.90
2158;DHT22;41972;48.774;9.282;2022-12-24T16:28:13;9.00;99.90
2158;DHT22;41972;48.774;9.282;2022-12-24T16:30:39;9.00;99.90
2158;DHT22;41972;48.774;9.282;2022-12-24T16:33:05;9.00;99.90
2158;DHT22;41972;48.774;9.282;2022-12-24T16:35:37;9.20;99.90
2158;DHT22;41972;48.774;9.282;2022-12-24T16:38:03;9.30;99.90
2158;DHT22;41972;48.774;9.282;2022-12-24T16:40:28;9.30;99.90
2158;DHT22;41972;48.774;9.282;2022-12-24T16:42:58;9.30;99.90
2158;DHT22;41972;48.774;9.282;2022-12-24T16:45:44;9.20;99.90
2158;DHT22;41972;48.774;9.282;2022-12-24T16:48:20;9.10;99.90
2158;DHT22;41972;48.774;9.282;2022-12-24T16:50:46;9.20;99.90
2158;DHT22;41972;48.774;9.282;2022-12-24T16:53:17;9.00;99.90
2158;DHT22;41972;48.774;9.282;2022-12-24T16:55:43;9.00;99.90
2158;DHT22;41972;48.774;9.282;2022-12-24T16:58:13;9.20;99.90
2158;DHT22;41972;48.774;9.282;2022-12-24T17:00:40;9.30;99.90
2158;DHT22;41972;48.774;9.282;2022-12-24T17:03:06;9.40;99.90
2158;DHT22;41972;48.774;9.282;2022-12-24T17:05:32;9.40;99.90
2158;DHT22;41972;48.774;9.282;2022-12-24T17:08:00;9.30;99.90
2158;DHT22;41972;48.774;9.282;2022-12-24T17:10:26;9.30;99.90
2158;DHT22;41972;48.774;9.282;2022-12-24T17:12:52;9.30;99.90
2158;DHT22;41972;48.774;9.282;2022-12-24T17:15:18;9.40;99.90
2158;DHT22;41972;48.774;9.282;2022-12-24T17:17:43;9.30;99.90
2158;DHT22;41972;48.774;9.282;2022-12-24T17:20:09;9.40;99.90
2158;DHT22;41972;48.774;9.282;2022-12-24T17:22:35;9.50;99.90
2158;DHT22;41972;48.774;9.282;2022-12-24T17:25:01;9.40;99.90
2158;DHT22;41972;48.774;9.282;2022-12-24T17:27:27;9.40;99.90
2158;DHT22;41972;48.774;9.282;2022-12-24T17:29:52;9.50;99.90
2158;DHT22;41972;48.774;9.282;2022-12-24T17:32:18;9.40;99.90
2158;DHT22;41972;48.774;9.282;2022-12-24T17:34:44;9.50;99.90
2158;DHT22;41972;48.774;9.282;2022-12-24T17:37:10;9.50;99.90
2158;DHT22;41972;48.774;9.282;2022-12-24T17:39:36;9.60;99.90
2158;DHT22;41972;48.774;9.282;2022-12-24T17:42:01;9.80;99.90
2158;DHT22;41972;48.774;9.282;2022-12-24T17:44:27;9.90;99.90
2158;DHT22;41972;48.774;9.282;2022-12-24T17:46:52;10.00;99.90
2158;DHT22;41972;48.774;9.282;2022-12-24T17:49:18;9.80;99.90
2158;DHT22;41972;48.774;9.282;2022-12-24T17:51:43;9.80;99.90
2158;DHT22;41972;48.774;9.282;2022-12-24T17:54:11;9.90;99.90
2158;DHT22;41972;48.774;9.282;2022-12-24T17:56:36;9.90;99.90